LFRT

Details ICAO LFRT (SBK)
Name Saint Brieuc Armor
Region France
Timezone Europe/Paris (UTC+1.0)
Plans Departing 102
Arriving 61
Stats Elevation 452 ft / 138 m (AMSL)
Location 48.538265° -2.854612°
Runways 1
Magnetic Variation 1.052° W
Sunrise 2017-12-14 07:57:29 UTC / 2017-12-14 08:57:29 Local
Sunset 2017-12-14 16:17:31 UTC / 2017-12-14 17:17:31 Local
Advertisement - Login to hide

Runways

ID Width Length Bearing (true) Bearing (mag) Surface Threshold Offset Overrun Length
06 148 ft / 45 m 7,214 ft / 2,199 m 58.77° 59.82° Asphalt 0 ft / 0 m 0 ft / 0 m
24 148 ft / 45 m 7,214 ft / 2,199 m 238.79° 239.84° Asphalt 0 ft / 0 m 0 ft / 0 m

Approach Navaids

Runway Type Ident Frequency Range Bearing (true) Bearing (mag) Slope Elevation
24 Localiser SB 109.95 MHz 18 nm / 33 km 238.78° 239.83° - 452 ft / 138 m (AMSL)
24 Glidescope SB 109.95 MHz 10 nm / 19 km 238.78° 239.83° 3.00° 452 ft / 138 m (AMSL)

Map

Weather


0- 5 10 15 20 25 30 35+ Temperature / ° C

Clouds and Precipitation
Forecast for 2017-12-15 00:00 UTC. Updated 13 minutes ago

Ground ~20,000 ft ~40,000 ft Winds

METAR

LFRT 141930Z AUTO 28021KT 9999 FEW042 SCT049 04/02 Q0996

TAF

Not found

Frequencies

Recorded 119.40 MHz SAINT_BRIEUC FSS
Tower 119.40 MHz ST_BRIEUC TWR
Unicom 119.40 MHz ST_BRIEUC MULT
Approach 124.90 MHz RENNES APP
Warning: Do not use this data for real-world aviation or navigation. No guarantee of current accuracy is given.